This is the latest recevied weather packets stored in our database for station/object IK2ILW-6. If no packets are shown the sender has not sent any weather packets the latest 1 day(s).
| Time | Temp. | Humidity | Pressure | Rain* | Wind** | Luminosity | Snow |
|---|---|---|---|---|---|---|---|
| 1778103986 | 2.22° C | 93% | 1011.7 hPa | 3.05 mm | - | 0 W/m² | - |
| 1778103694 | 2.22° C | 93% | 1011.6 hPa | 3.05 mm | - | 0 W/m² | - |
| 1778103399 | 2.22° C | 92% | 1011.7 hPa | 3.05 mm | - | 0 W/m² | - |
| 1778102789 | 2.22° C | 92% | 1011.8 hPa | 2.03 mm | - | 0 W/m² | - |
| 1778102197 | 2.22° C | 91% | 1011.7 hPa | 3.05 mm | - | 0 W/m² | - |
| 1778097690 | 2.22° C | 95% | 1011.5 hPa | 4.06 mm | - | 0 W/m² | - |
| 1778095898 | 2.78° C | 89% | 1011.1 hPa | 4.06 mm | - | 0 W/m² | - |
| 1778095601 | 2.78° C | 89% | 1010.9 hPa | 4.06 mm | - | 0 W/m² | - |
| 1778094990 | 3.33° C | 88% | 1010.8 hPa | 3.05 mm | - | 0 W/m² | - |
| 1778094694 | 3.33° C | 88% | 1010.7 hPa | 4.06 mm | - | 0 W/m² | - |
| 1778093792 | 2.78° C | 89% | 1010.6 hPa | 5.08 mm | - | 0 W/m² | - |
| 1778092294 | 2.22° C | 90% | 1010.4 hPa | 7.87 mm | - | 0 W/m² | - |
| 1778091684 | 2.22° C | 91% | 1010.5 hPa | 8.89 mm | - | 0 W/m² | - |
| 1778090782 | 1.67° C | 93% | 1010.2 hPa | 9.91 mm | - | 5 W/m² | - |
| 1778089897 | 1.67° C | 95% | 1010.2 hPa | 7.11 mm | - | 0 W/m² | - |
| 1778089602 | 1.67° C | 95% | 1010.3 hPa | 6.1 mm | - | 0 W/m² | - |
| 1778088993 | 1.11° C | 95% | 1010.1 hPa | 5.08 mm | - | 0 W/m² | - |
| 1778086589 | 1.67° C | 93% | 1009.9 hPa | 6.1 mm | - | 0 W/m² | - |
| 1778085997 | 2.78° C | 93% | 1009.1 hPa | 5.08 mm | - | 0 W/m² | - |
| 1778085702 | 2.78° C | 95% | 1009.1 hPa | 6.1 mm | - | 0 W/m² | - |
| 1778085092 | 3.33° C | 96% | 1009.1 hPa | 6.1 mm | - | 0 W/m² | - |
| 1778084800 | 3.33° C | 95% | 1008.5 hPa | 7.11 mm | - | 0 W/m² | - |
| 1778082102 | 3.33° C | 97% | 1008.6 hPa | 3.05 mm | - | 12 W/m² | - |
| 1778081494 | 2.78° C | 97% | 1008.8 hPa | 2.03 mm | - | 18 W/m² | - |
| 1778076087 | 4.44° C | 97% | 1009.8 hPa | 2.03 mm | - | 105 W/m² | - |
* Rain latest hour (hover to see other rain measurements)
** Current wind speed in m/s (hover to see current wind gust speed)